Flugplatz Karlshöfen (EDWK)

Hier findest Du alle Informationen zum Flugplatz Karlshöfen (EDWK).

Informationen für Piloten zum Flugplatz Karlshöfen

Hier findest Du alle relevanten Informationen, die Du als Pilot benötigst, um Karlshöfen anzufliegen.

Flugplatz: Karlshöfen ICAO-Code: EDWK
Frequenz Turm: 118,925 Mhz GAFOR Gebiet: 5
Frequenz Ground: 118,925 Mhz Mogas: ja
Platzrunde: SW 800 ft Landegebühr: -
Platzhöhe: 20 ft Sunrise: 03:19 Uhr UTC
Pisten: 12/30 - 700 m x 15 m, ASPH Sunset: 19:41 Uhr UTC

Mitglieder, die in Karlshöfen fliegen

Flugwetter am Flugplatz Karlshöfen

Die METAR Information stammen aus EDDW (35.56 km entfernt).

METAR Code:
2024/07/17 09:50
EDDW 170950Z AUTO 28016KT 9999 SCT022 BKN036 BKN044 19/14 Q1018 NOSIG

Flugschulen am Flugplatz Karlshöfen

Am Flugplatz Karlshöfen gibt es leider keine Flugschule.

Benachbarte Flugplätze und Flugschulen

Es gibt 13 weitere Flugplätze in einem Umkreis von 50 km um den Flugplatz Karlshöfen.

Jetzt anmelden

Passwort vergessen

Umfrage Archiv

Wie häufig haltet Ihr die Halbkreisflugregel ein?

Eher häufig!
36.4 %
Immer!
30.2 %
Hin und wieder!
17.1 %
Nie!
9.5 %
Eher selten!
6.9 %
Stimmen: 275 | Diskussion
Anzeige: Roland Aircraft
Statistik Alle Mitglieder

Aktuell sind 26 Besucher online, davon 1 Mitglied und 25 Gäste.


Mitglieder online:
Mucki 

Anzeige: EasyVFR